Time;durP1;ratioP1;P1;durP2;ratioP2;P2;SDS_P1;SDS_P2;PMS_P1;PMS_P2;Temp;Humidity;BMP_temperature;BMP_pressure;BME280_temperature;BME280_humidity;BME280_pressure;Samples;Min_cycle;Max_cycle;Signal;HPM_P1;HPM_P2
2022/04/04 00:02:14;;;;;;;;;;;;;;;;;;5945138;24;20414;-84
2022/04/04 00:04:47;;;;;;;;;;;;;;;;;;5946335;24;19923;-84
2022/04/04 00:07:15;;;;;;;;;;;;;;;;;;5922023;24;19961;-84
2022/04/04 00:09:42;;;;;;;;;;;;;;;;;;5946552;24;19996;-84
2022/04/04 00:12:11;;;;;;;;;;;;;;;;;;5951993;23;20075;-84
2022/04/04 00:14:38;;;;;;;;;;;;;;;;;;6006459;23;19918;-84
2022/04/04 00:17:05;;;;;;;;;;;;;;;;;;6006408;23;19926;-84
2022/04/04 00:19:31;;;;;;;;;;;;;;;;;;6006448;23;19929;-84
2022/04/04 00:22:20;;;;;;;;;;;;;;;;;;6033983;23;20190;-84
2022/04/04 00:24:50;;;;;;;;;;;;;;;;;;6085535;23;19936;-84
2022/04/04 00:27:16;;;;;;;;;;;;;;;;;;6059784;23;20283;-85
2022/04/04 00:29:43;;;;;;;;;;;;;;;;;;6062466;23;19975;-84
2022/04/04 00:32:11;;;;;;;;;;;;;;;;;;6149193;23;19966;-84
2022/04/04 00:34:38;;;;;;;;;;;;;;;;;;6179829;23;19947;-84
2022/04/04 00:37:07;;;;;;;;;;;;;;;;;;6180566;23;20348;-84
2022/04/04 00:39:37;;;;;;;;;;;;;;;;;;6178927;23;20551;-84
2022/04/04 00:42:04;;;;;;;;;;;;;;;;;;6179092;23;19987;-84
2022/04/04 00:44:31;;;;;;;;;;;;;;;;;;6177150;23;19920;-84
2022/04/04 00:47:02;;;;;;;;;;;;;;;;;;6202203;23;19916;-85
2022/04/04 00:49:29;;;;;;;;;;;;;;;;;;6178638;23;19990;-84
2022/04/04 00:51:56;;;;;;;;;;;;;;;;;;6178949;23;19982;-84
2022/04/04 00:54:22;;;;;;;;;;;;;;;;;;6179148;23;19952;-84
2022/04/04 00:56:49;;;;;;;;;;;;;;;;;;6178332;23;19955;-84
2022/04/04 00:59:19;;;;;;;;;;;;;;;;;;6180401;23;19919;-84
2022/04/04 01:01:45;;;;;;;;;;;;;;;;;;6180744;23;19931;-84
2022/04/04 01:04:13;;;;;;;;;;;;;;;;;;6206624;23;19924;-84
2022/04/04 01:06:40;;;;;;;;;;;;;;;;;;6181091;23;19994;-84
2022/04/04 01:09:08;;;;;;;;;;;;;;;;;;6180222;23;19952;-84
2022/04/04 01:11:36;;;;;;;;;;;;;;;;;;6180582;23;19919;-84
2022/04/04 01:14:22;;;;;;;;;;;;;;;;;;6148650;23;19924;-85
2022/04/04 01:16:49;;;;;;;;;;;;;;;;;;6124036;23;19921;-84
2022/04/04 01:19:17;;;;;;;;;;;;;;;;;;6148126;23;19920;-84
2022/04/04 01:21:44;;;;;;;;;;;;;;;;;;6149293;23;20253;-84
2022/04/04 01:24:11;;;;;;;;;;;;;;;;;;6171620;23;20379;-84
2022/04/04 01:26:39;;;;;;;;;;;;;;;;;;6147127;23;19955;-84
2022/04/04 01:29:20;;;;;;;;;;;;;;;;;;6148717;23;20367;-84
2022/04/04 01:31:48;;;;;;;;;;;;;;;;;;6147165;23;19931;-84
2022/04/04 01:34:15;;;;;;;;;;;;;;;;;;6146262;23;20016;-84
2022/04/04 01:36:46;;;;;;;;;;;;;;;;;;6123332;23;19978;-84
2022/04/04 01:39:32;;;;;;;;;;;;;;;;;;6150453;23;20030;-89
2022/04/04 01:41:59;;;;;;;;;;;;;;;;;;6169827;23;19927;-89
2022/04/04 01:44:26;;;;;;;;;;;;;;;;;;6121965;23;19986;-89
2022/04/04 01:46:56;;;;;;;;;;;;;;;;;;6145538;23;19943;-89
2022/04/04 01:49:22;;;;;;;;;;;;;;;;;;6122799;23;19963;-89
2022/04/04 01:52:04;;;;;;;;;;;;;;;;;;6083016;23;19988;-90
2022/04/04 01:54:32;;;;;;;;;;;;;;;;;;6059476;23;20003;-90
2022/04/04 01:56:58;;;;;;;;;;;;;;;;;;6059698;23;19925;-90
2022/04/04 01:59:25;;;;;;;;;;;;;;;;;;6080896;23;20118;-90
2022/04/04 02:01:52;;;;;;;;;;;;;;;;;;6085118;23;20352;-90
2022/04/04 02:04:19;;;;;;;;;;;;;;;;;;6083556;23;19953;-90
2022/04/04 02:06:45;;;;;;;;;;;;;;;;;;6083284;23;19918;-90
2022/04/04 02:09:12;;;;;;;;;;;;;;;;;;6082542;23;19921;-89
2022/04/04 02:11:40;;;;;;;;;;;;;;;;;;6057471;23;19921;-89
2022/04/04 02:14:07;;;;;;;;;;;;;;;;;;6058453;23;20004;-90
2022/04/04 02:16:34;;;;;;;;;;;;;;;;;;6057905;23;19969;-90
2022/04/04 02:19:01;;;;;;;;;;;;;;;;;;6058956;23;19917;-89
2022/04/04 02:21:28;;;;;;;;;;;;;;;;;;6083557;23;19917;-90
2022/04/04 02:23:55;;;;;;;;;;;;;;;;;;6130363;23;20100;-88
2022/04/04 02:26:22;;;;;;;;;;;;;;;;;;6150218;23;20254;-89
2022/04/04 02:28:49;;;;;;;;;;;;;;;;;;6150875;23;20633;-89
2022/04/04 02:31:16;;;;;;;;;;;;;;;;;;6118976;23;19924;-89
2022/04/04 02:33:44;;;;;;;;;;;;;;;;;;6120617;23;19924;-89
2022/04/04 02:36:11;;;;;;;;;;;;;;;;;;6120223;23;19925;-89
2022/04/04 02:38:38;;;;;;;;;;;;;;;;;;6120223;23;19920;-89
2022/04/04 02:41:06;;;;;;;;;;;;;;;;;;6119495;23;19944;-89
2022/04/04 02:43:33;;;;;;;;;;;;;;;;;;6121167;23;19996;-90
2022/04/04 02:45:59;;;;;;;;;;;;;;;;;;6146908;23;19920;-90
2022/04/04 02:48:32;;;;;;;;;;;;;;;;;;6119754;23;20016;-89
2022/04/04 02:50:59;;;;;;;;;;;;;;;;;;6146060;23;19920;-89
2022/04/04 02:53:26;;;;;;;;;;;;;;;;;;6145515;23;19931;-89
2022/04/04 02:58:41;;;;;;;;;;;;;;;;;;6118872;23;20348;-89
2022/04/04 03:01:08;;;;;;;;;;;;;;;;;;6118461;23;20053;-89
2022/04/04 03:03:35;;;;;;;;;;;;;;;;;;6119108;23;19920;-89
2022/04/04 03:06:02;;;;;;;;;;;;;;;;;;6117991;23;19931;-90
2022/04/04 03:08:29;;;;;;;;;;;;;;;;;;6117614;23;20003;-90
2022/04/04 03:10:55;;;;;;;;;;;;;;;;;;6119253;23;19928;-90
2022/04/04 03:13:22;;;;;;;;;;;;;;;;;;6117329;23;19928;-89
2022/04/04 03:15:49;;;;;;;;;;;;;;;;;;6117866;23;19921;-89
2022/04/04 03:18:17;;;;;;;;;;;;;;;;;;6118721;23;19924;-90
2022/04/04 03:20:53;;;;;;;;;;;;;;;;;;6144904;23;19927;-90
2022/04/04 03:23:20;;;;;;;;;;;;;;;;;;6119471;23;19926;-89
2022/04/04 03:25:47;;;;;;;;;;;;;;;;;;6120636;23;19934;-89
2022/04/04 03:28:14;;;;;;;;;;;;;;;;;;6119302;23;20601;-89
2022/04/04 03:30:41;;;;;;;;;;;;;;;;;;6120251;23;19991;-89
2022/04/04 03:33:07;;;;;;;;;;;;;;;;;;6170085;23;19923;-89
2022/04/04 03:35:45;;;;;;;;;;;;;;;;;;6205022;23;19927;-89
2022/04/04 03:38:14;;;;;;;;;;;;;;;;;;6179693;23;20249;-89
2022/04/04 03:40:43;;;;;;;;;;;;;;;;;;6204771;23;19919;-89
2022/04/04 03:43:29;;;;;;;;;;;;;;;;;;6203400;23;19962;-90
2022/04/04 03:45:55;;;;;;;;;;;;;;;;;;6181956;23;19927;-90
2022/04/04 03:48:23;;;;;;;;;;;;;;;;;;6177954;23;19927;-89
2022/04/04 03:50:54;;;;;;;;;;;;;;;;;;6178213;23;19920;-89
2022/04/04 03:53:33;;;;;;;;;;;;;;;;;;6205214;23;19919;-89
2022/04/04 03:55:59;;;;;;;;;;;;;;;;;;6181070;23;19920;-90
2022/04/04 03:58:27;;;;;;;;;;;;;;;;;;6179082;23;19920;-89
2022/04/04 04:00:54;;;;;;;;;;;;;;;;;;6203027;23;20014;-89
2022/04/04 04:03:21;;;;;;;;;;;;;;;;;;6176802;23;19920;-89
2022/04/04 04:05:47;;;;;;;;;;;;;;;;;;6178704;23;19951;-89
2022/04/04 04:08:15;;;;;;;;;;;;;;;;;;6178233;23;20598;-89
2022/04/04 04:10:52;;;;;;;;;;;;;;;;;;6205324;23;19924;-89
2022/04/04 04:13:18;;;;;;;;;;;;;;;;;;6178039;23;20325;-90
2022/04/04 04:15:47;;;;;;;;;;;;;;;;;;6205751;23;20008;-89
2022/04/04 04:18:14;;;;;;;;;;;;;;;;;;6180228;23;19931;-89
2022/04/04 04:20:41;;;;;;;;;;;;;;;;;;6178551;23;20109;-89
2022/04/04 04:23:07;;;;;;;;;;;;;;;;;;6179122;23;19920;-89
2022/04/04 04:25:49;;;;;;;;;;;;;;;;;;6136356;23;19948;-89
2022/04/04 04:28:19;;;;;;;;;;;;;;;;;;6115110;23;19916;-88
2022/04/04 04:30:49;;;;;;;;;;;;;;;;;;6115133;23;19917;-88
2022/04/04 04:33:17;;;;;;;;;;;;;;;;;;6140337;23;19928;-89
2022/04/04 04:35:44;;;;;;;;;;;;;;;;;;6091254;23;20389;-90
2022/04/04 04:38:12;;;;;;;;;;;;;;;;;;6091061;23;19921;-89
2022/04/04 04:40:37;;;;;;;;;;;;;;;;;;6093045;23;19921;-89
2022/04/04 04:43:10;;;;;;;;;;;;;;;;;;6092365;23;20374;-89
2022/04/04 04:45:37;;;;;;;;;;;;;;;;;;6115848;23;19921;-89
2022/04/04 04:48:05;;;;;;;;;;;;;;;;;;6089490;23;19921;-89
2022/04/04 04:50:34;;;;;;;;;;;;;;;;;;6091514;23;19921;-90
2022/04/04 04:53:20;;;;;;;;;;;;;;;;;;6063359;23;19932;-89
2022/04/04 04:56:00;;;;;;;;;;;;;;;;;;6095552;23;20250;-89
2022/04/04 04:58:26;;;;;;;;;;;;;;;;;;6119350;23;19921;-89
2022/04/04 05:00:52;;;;;;;;;;;;;;;;;;6118246;23;19920;-89
2022/04/04 05:03:38;;;;;;;;;;;;;;;;;;6123479;23;19924;-90
2022/04/04 05:06:06;;;;;;;;;;;;;;;;;;6118297;23;20257;-89
2022/04/04 05:08:32;;;;;;;;;;;;;;;;;;6118751;23;20836;-89
2022/04/04 05:11:00;;;;;;;;;;;;;;;;;;6094015;23;19946;-90
2022/04/04 05:13:29;;;;;;;;;;;;;;;;;;6144576;23;19931;-89
2022/04/04 05:15:56;;;;;;;;;;;;;;;;;;6118894;23;19920;-89
2022/04/04 05:18:32;;;;;;;;;;;;;;;;;;6142419;23;20115;-90
2022/04/04 05:21:09;;;;;;;;;;;;;;;;;;6142857;23;20016;-89
2022/04/04 05:23:51;;;;;;;;;;;;;;;;;;6113963;23;20008;-90
2022/04/04 05:26:18;;;;;;;;;;;;;;;;;;6088965;23;19932;-89
2022/04/04 05:28:45;;;;;;;;;;;;;;;;;;6089295;23;19921;-89
2022/04/04 05:31:12;;;;;;;;;;;;;;;;;;6112766;23;19976;-89
2022/04/04 05:33:40;;;;;;;;;;;;;;;;;;6113551;23;19921;-89
2022/04/04 05:36:07;;;;;;;;;;;;;;;;;;6113198;23;20258;-90
2022/04/04 05:38:33;;;;;;;;;;;;;;;;;;6114077;23;19920;-89
2022/04/04 05:41:01;;;;;;;;;;;;;;;;;;6088210;23;20417;-90
2022/04/04 05:43:47;;;;;;;;;;;;;;;;;;6159322;23;20004;-89
2022/04/04 05:46:15;;;;;;;;;;;;;;;;;;6172346;23;19929;-89
2022/04/04 05:48:42;;;;;;;;;;;;;;;;;;6147817;23;19916;-89
2022/04/04 05:51:13;;;;;;;;;;;;;;;;;;6173449;23;19974;-90
2022/04/04 05:53:43;;;;;;;;;;;;;;;;;;6147571;23;19958;-90
2022/04/04 05:56:38;;;;;;;;;;;;;;;;;;6144896;23;19925;-89
2022/04/04 05:59:05;;;;;;;;;;;;;;;;;;6118547;23;19987;-90
2022/04/04 06:01:32;;;;;;;;;;;;;;;;;;6119921;23;20346;-90
2022/04/04 06:03:58;;;;;;;;;;;;;;;;;;6120404;23;19955;-90
2022/04/04 06:06:25;;;;;;;;;;;;;;;;;;6120020;23;19920;-90
2022/04/04 06:08:51;;;;;;;;;;;;;;;;;;6119755;23;19965;-91
2022/04/04 06:11:18;;;;;;;;;;;;;;;;;;6115651;23;19995;-91
2022/04/04 06:13:45;;;;;;;;;;;;;;;;;;6121096;23;19920;-91
2022/04/04 06:16:12;;;;;;;;;;;;;;;;;;6120944;23;19924;-91
2022/04/04 06:18:40;;;;;;;;;;;;;;;;;;6146490;23;19983;-92
2022/04/04 06:21:05;;;;;;;;;;;;;;;;;;6121639;23;20368;-91
2022/04/04 06:23:33;;;;;;;;;;;;;;;;;;6122074;23;19920;-91
2022/04/04 06:26:00;;;;;;;;;;;;;;;;;;6115409;23;19920;-90
2022/04/04 06:28:29;;;;;;;;;;;;;;;;;;6155756;23;20249;-89
2022/04/04 06:30:59;;;;;;;;;;;;;;;;;;6179864;23;19931;-91
2022/04/04 06:33:27;;;;;;;;;;;;;;;;;;6208274;23;19926;-91
2022/04/04 06:35:55;;;;;;;;;;;;;;;;;;6183998;23;19991;-90
2022/04/04 06:38:22;;;;;;;;;;;;;;;;;;6182036;23;19966;-90
2022/04/04 06:40:51;;;;;;;;;;;;;;;;;;6180552;23;19970;-92
2022/04/04 06:43:19;;;;;;;;;;;;;;;;;;6183415;23;20329;-91
2022/04/04 06:45:45;;;;;;;;;;;;;;;;;;6183335;23;20305;-91
2022/04/04 06:48:15;;;;;;;;;;;;;;;;;;6145500;23;20080;-91
2022/04/04 06:50:42;;;;;;;;;;;;;;;;;;6123116;23;19995;-92
2022/04/04 06:53:10;;;;;;;;;;;;;;;;;;6121214;23;19928;-91
2022/04/04 06:55:40;;;;;;;;;;;;;;;;;;6119110;23;20316;-91
2022/04/04 06:58:07;;;;;;;;;;;;;;;;;;6144832;23;19962;-91
2022/04/04 07:00:35;;;;;;;;;;;;;;;;;;6096416;23;19920;-91
2022/04/04 07:03:08;;;;;;;;;;;;;;;;;;6121068;23;19955;-91
2022/04/04 07:05:40;;;;;;;;;;;;;;;;;;6123535;23;20021;-91
2022/04/04 07:08:07;;;;;;;;;;;;;;;;;;6097336;23;19925;-91
2022/04/04 07:10:34;;;;;;;;;;;;;;;;;;6121844;23;20048;-91
2022/04/04 07:13:00;;;;;;;;;;;;;;;;;;6122385;23;19921;-92
2022/04/04 07:15:28;;;;;;;;;;;;;;;;;;6122351;23;19923;-92
2022/04/04 07:17:55;;;;;;;;;;;;;;;;;;6124798;23;20052;-91
2022/04/04 07:20:22;;;;;;;;;;;;;;;;;;6099833;23;19975;-91
2022/04/04 07:22:48;;;;;;;;;;;;;;;;;;6124838;23;19939;-91
2022/04/04 07:25:16;;;;;;;;;;;;;;;;;;6124659;23;19928;-91
2022/04/04 07:27:42;;;;;;;;;;;;;;;;;;6124553;23;19916;-91
2022/04/04 07:30:09;;;;;;;;;;;;;;;;;;6099989;23;20001;-91
2022/04/04 07:32:36;;;;;;;;;;;;;;;;;;6121933;23;19931;-91
2022/04/04 07:35:03;;;;;;;;;;;;;;;;;;6122685;23;19921;-91
2022/04/04 07:37:49;;;;;;;;;;;;;;;;;;6124362;23;20003;-91
2022/04/04 07:40:16;;;;;;;;;;;;;;;;;;6098417;23;19923;-92
2022/04/04 07:42:42;;;;;;;;;;;;;;;;;;6123415;23;20671;-91
2022/04/04 07:45:27;;;;;;;;;;;;;;;;;;6067135;23;19921;-91
2022/04/04 07:47:55;;;;;;;;;;;;;;;;;;6031736;23;19918;-91
2022/04/04 07:50:23;;;;;;;;;;;;;;;;;;6033692;23;19917;-92
2022/04/04 07:52:50;;;;;;;;;;;;;;;;;;6064899;23;19918;-92
2022/04/04 07:55:17;;;;;;;;;;;;;;;;;;6063521;23;19945;-91
2022/04/04 07:57:45;;;;;;;;;;;;;;;;;;6065377;23;19928;-92
2022/04/04 08:00:14;;;;;;;;;;;;;;;;;;6064556;23;20338;-91
2022/04/04 08:02:40;;;;;;;;;;;;;;;;;;6031796;23;19925;-91
2022/04/04 08:05:08;;;;;;;;;;;;;;;;;;6030448;23;19918;-92
2022/04/04 08:07:36;;;;;;;;;;;;;;;;;;6033592;23;19918;-92
2022/04/04 08:10:03;;;;;;;;;;;;;;;;;;6034443;23;19918;-92
2022/04/04 08:12:30;;;;;;;;;;;;;;;;;;6031811;23;19961;-91
2022/04/04 08:15:16;;;;;;;;;;;;;;;;;;5982137;23;20710;-90
2022/04/04 08:17:44;;;;;;;;;;;;;;;;;;6061976;23;19949;-91
2022/04/04 08:20:11;;;;;;;;;;;;;;;;;;6089401;23;19928;-91
2022/04/04 08:22:58;;;;;;;;;;;;;;;;;;6037227;23;19922;-91
2022/04/04 08:25:35;;;;;;;;;;;;;;;;;;6062062;23;19928;-91
2022/04/04 08:28:20;;;;;;;;;;;;;;;;;;6061628;23;19920;-92
2022/04/04 08:30:50;;;;;;;;;;;;;;;;;;6061276;23;19956;-91
2022/04/04 08:33:18;;;;;;;;;;;;;;;;;;6055362;23;20480;-91
2022/04/04 08:35:50;;;;;;;;;;;;;;;;;;6119682;23;19917;-92
2022/04/04 08:38:29;;;;;;;;;;;;;;;;;;6119178;23;20653;-91
2022/04/04 08:40:57;;;;;;;;;;;;;;;;;;6094592;23;19924;-92
2022/04/04 08:43:24;;;;;;;;;;;;;;;;;;6094165;23;19928;-91
2022/04/04 08:45:51;;;;;;;;;;;;;;;;;;6094384;23;19924;-91
2022/04/04 08:48:17;;;;;;;;;;;;;;;;;;6091665;23;20726;-90
2022/04/04 08:50:44;;;;;;;;;;;;;;;;;;6090490;23;19917;-91
2022/04/04 08:53:11;;;;;;;;;;;;;;;;;;6094617;23;19952;-91
2022/04/04 08:55:38;;;;;;;;;;;;;;;;;;6093343;23;19921;-91
2022/04/04 08:58:06;;;;;;;;;;;;;;;;;;6096275;23;19969;-91
2022/04/04 09:00:35;;;;;;;;;;;;;;;;;;6153406;23;19920;-91
2022/04/04 09:03:03;;;;;;;;;;;;;;;;;;6154222;23;19920;-92
2022/04/04 09:05:50;;;;;;;;;;;;;;;;;;6096595;23;19994;-90
2022/04/04 09:08:18;;;;;;;;;;;;;;;;;;6124017;23;19987;-90
2022/04/04 09:10:48;;;;;;;;;;;;;;;;;;6148310;23;20241;-91
2022/04/04 09:13:16;;;;;;;;;;;;;;;;;;6123989;23;20354;-90
2022/04/04 09:15:43;;;;;;;;;;;;;;;;;;6124273;23;19927;-91
2022/04/04 09:18:10;;;;;;;;;;;;;;;;;;6123457;23;20025;-90
2022/04/04 09:20:37;;;;;;;;;;;;;;;;;;6098430;23;19927;-90
2022/04/04 09:23:03;;;;;;;;;;;;;;;;;;6098791;23;19982;-91
2022/04/04 09:25:30;;;;;;;;;;;;;;;;;;6098674;23;19917;-91
2022/04/04 09:27:57;;;;;;;;;;;;;;;;;;6123719;23;20332;-91
2022/04/04 09:30:25;;;;;;;;;;;;;;;;;;6097346;23;20246;-90
2022/04/04 09:32:54;;;;;;;;;;;;;;;;;;6099054;23;20294;-90
2022/04/04 09:35:22;;;;;;;;;;;;;;;;;;6123512;23;20142;-90
2022/04/04 09:37:49;;;;;;;;;;;;;;;;;;6096616;23;19936;-90
2022/04/04 09:40:16;;;;;;;;;;;;;;;;;;6124115;23;19920;-90
2022/04/04 09:42:44;;;;;;;;;;;;;;;;;;6123792;23;19920;-91
2022/04/04 09:45:12;;;;;;;;;;;;;;;;;;6123730;23;19924;-90
2022/04/04 09:47:58;;;;;;;;;;;;;;;;;;6065215;23;20696;-89
2022/04/04 09:50:26;;;;;;;;;;;;;;;;;;6064551;23;19921;-90
2022/04/04 09:52:53;;;;;;;;;;;;;;;;;;6088070;23;19924;-91
2022/04/04 09:55:34;;;;;;;;;;;;;;;;;;6104692;23;19963;-91
2022/04/04 09:58:16;;;;;;;;;;;;;;;;;;6119022;23;19924;-90
2022/04/04 10:00:46;;;;;;;;;;;;;;;;;;6095481;23;20409;-90
2022/04/04 10:03:14;;;;;;;;;;;;;;;;;;6120248;23;19948;-91
2022/04/04 10:05:42;;;;;;;;;;;;;;;;;;6095726;23;20473;-91
2022/04/04 10:08:09;;;;;;;;;;;;;;;;;;6095068;23;20346;-91
2022/04/04 10:10:37;;;;;;;;;;;;;;;;;;6095709;23;20060;-90
2022/04/04 10:13:07;;;;;;;;;;;;;;;;;;6119421;23;19925;-91
2022/04/04 10:15:33;;;;;;;;;;;;;;;;;;6095226;23;19968;-90
2022/04/04 10:18:00;;;;;;;;;;;;;;;;;;6119182;23;19925;-90
2022/04/04 10:20:27;;;;;;;;;;;;;;;;;;6094977;23;19944;-91
2022/04/04 10:22:54;;;;;;;;;;;;;;;;;;6095697;23;19940;-91
2022/04/04 10:25:21;;;;;;;;;;;;;;;;;;6095423;23;19920;-91
2022/04/04 10:27:49;;;;;;;;;;;;;;;;;;6093808;23;20203;-90
2022/04/04 10:30:16;;;;;;;;;;;;;;;;;;6120439;23;19955;-91
2022/04/04 10:32:44;;;;;;;;;;;;;;;;;;6175209;23;20360;-91
2022/04/04 10:35:11;;;;;;;;;;;;;;;;;;6182723;23;19920;-91
2022/04/04 10:37:38;;;;;;;;;;;;;;;;;;6183331;23;19924;-90
2022/04/04 10:40:05;;;;;;;;;;;;;;;;;;6183833;23;20333;-91
2022/04/04 10:42:32;;;;;;;;;;;;;;;;;;6182943;23;19924;-90
2022/04/04 10:45:00;;;;;;;;;;;;;;;;;;6183474;23;19915;-91
2022/04/04 10:47:28;;;;;;;;;;;;;;;;;;6183755;23;19926;-91
2022/04/04 10:49:56;;;;;;;;;;;;;;;;;;6183324;23;19919;-91
2022/04/04 10:52:43;;;;;;;;;;;;;;;;;;6151613;23;19927;-89
2022/04/04 10:55:09;;;;;;;;;;;;;;;;;;6127315;23;19987;-91
2022/04/04 10:57:55;;;;;;;;;;;;;;;;;;6156312;23;19923;-90
2022/04/04 11:00:22;;;;;;;;;;;;;;;;;;6151583;23;20413;-90
2022/04/04 11:02:49;;;;;;;;;;;;;;;;;;6127481;23;19920;-90
2022/04/04 11:08:06;;;;;;;;;;;;;;;;;;6153645;23;20377;-90
2022/04/04 11:10:33;;;;;;;;;;;;;;;;;;6150784;23;19994;-89
2022/04/04 11:13:04;;;;;;;;;;;;;;;;;;6153571;23;19924;-91
2022/04/04 11:15:31;;;;;;;;;;;;;;;;;;6154081;23;19974;-90
2022/04/04 11:18:00;;;;;;;;;;;;;;;;;;6129648;23;20095;-90
2022/04/04 11:20:34;;;;;;;;;;;;;;;;;;6153071;23;19943;-90
2022/04/04 11:23:01;;;;;;;;;;;;;;;;;;6129701;23;20091;-90
2022/04/04 11:25:34;;;;;;;;;;;;;;;;;;6153770;23;19920;-91
2022/04/04 11:28:30;;;;;;;;;;;;;;;;;;6157452;23;19978;-90
2022/04/04 11:30:57;;;;;;;;;;;;;;;;;;6154177;23;19944;-90
2022/04/04 11:33:26;;;;;;;;;;;;;;;;;;6128438;23;19924;-89
2022/04/04 11:35:54;;;;;;;;;;;;;;;;;;6157995;23;20355;-90
2022/04/04 11:38:22;;;;;;;;;;;;;;;;;;6182685;23;19920;-90
2022/04/04 11:40:55;;;;;;;;;;;;;;;;;;6184642;23;19950;-89
2022/04/04 11:43:40;;;;;;;;;;;;;;;;;;6208238;23;19919;-89
2022/04/04 11:46:19;;;;;;;;;;;;;;;;;;6184425;23;19926;-90
2022/04/04 11:48:46;;;;;;;;;;;;;;;;;;6185671;23;20325;-90
2022/04/04 11:51:14;;;;;;;;;;;;;;;;;;6185082;23;19978;-91
2022/04/04 11:53:41;;;;;;;;;;;;;;;;;;6185135;23;19952;-90
2022/04/04 11:56:21;;;;;;;;;;;;;;;;;;6211766;23;19915;-90
2022/04/04 11:58:51;;;;;;;;;;;;;;;;;;6186181;23;19966;-90
2022/04/04 12:01:28;;;;;;;;;;;;;;;;;;6184769;23;19923;-90
2022/04/04 12:04:15;;;;;;;;;;;;;;;;;;6152533;23;19959;-90
2022/04/04 12:07:02;;;;;;;;;;;;;;;;;;6065191;23;19921;-91
2022/04/04 12:09:29;;;;;;;;;;;;;;;;;;6067912;23;19918;-92
2022/04/04 12:11:56;;;;;;;;;;;;;;;;;;6065604;23;20255;-90
2022/04/04 12:14:23;;;;;;;;;;;;;;;;;;6066733;23;19997;-91
2022/04/04 12:16:53;;;;;;;;;;;;;;;;;;6090747;23;19994;-91
2022/04/04 12:19:20;;;;;;;;;;;;;;;;;;6090044;23;19927;-91
2022/04/04 12:21:48;;;;;;;;;;;;;;;;;;6089816;23;19917;-91
2022/04/04 12:27:02;;;;;;;;;;;;;;;;;;6066272;23;20410;-91
2022/04/04 12:29:29;;;;;;;;;;;;;;;;;;6066269;23;19917;-92
2022/04/04 12:31:57;;;;;;;;;;;;;;;;;;6089761;23;20256;-91
2022/04/04 12:34:24;;;;;;;;;;;;;;;;;;6066076;23;20361;-91
2022/04/04 12:36:52;;;;;;;;;;;;;;;;;;6065603;23;20359;-92
2022/04/04 12:39:19;;;;;;;;;;;;;;;;;;6065737;23;19917;-91
2022/04/04 12:41:45;;;;;;;;;;;;;;;;;;6066044;23;20366;-91
2022/04/04 12:44:15;;;;;;;;;;;;;;;;;;6089662;23;19997;-91
2022/04/04 12:46:41;;;;;;;;;;;;;;;;;;6065581;23;19921;-92
2022/04/04 12:49:09;;;;;;;;;;;;;;;;;;6092304;23;20037;-91
2022/04/04 12:51:38;;;;;;;;;;;;;;;;;;6167700;23;19920;-91
2022/04/04 12:54:04;;;;;;;;;;;;;;;;;;6187313;23;19962;-91
2022/04/04 12:56:32;;;;;;;;;;;;;;;;;;6185656;23;19928;-91
2022/04/04 12:58:59;;;;;;;;;;;;;;;;;;6212633;23;19916;-91
2022/04/04 13:01:26;;;;;;;;;;;;;;;;;;6186340;23;20605;-91
2022/04/04 13:03:54;;;;;;;;;;;;;;;;;;6187259;23;19923;-91
2022/04/04 13:06:21;;;;;;;;;;;;;;;;;;6184223;23;19920;-91
2022/04/04 13:08:48;;;;;;;;;;;;;;;;;;6186399;23;19916;-91
2022/04/04 13:11:15;;;;;;;;;;;;;;;;;;6185970;23;19916;-90
2022/04/04 13:13:43;;;;;;;;;;;;;;;;;;6186563;23;19935;-91
2022/04/04 13:16:09;;;;;;;;;;;;;;;;;;6211151;23;19943;-91
2022/04/04 13:18:36;;;;;;;;;;;;;;;;;;6186302;23;19924;-91
2022/04/04 13:21:04;;;;;;;;;;;;;;;;;;6185567;23;20038;-91
2022/04/04 13:23:31;;;;;;;;;;;;;;;;;;6186410;23;19931;-91
2022/04/04 13:25:58;;;;;;;;;;;;;;;;;;6185799;23;20254;-91
2022/04/04 13:28:25;;;;;;;;;;;;;;;;;;6185779;23;19919;-91
2022/04/04 13:31:10;;;;;;;;;;;;;;;;;;6211050;23;19915;-91
2022/04/04 13:33:37;;;;;;;;;;;;;;;;;;6185654;23;19923;-91
2022/04/04 13:36:04;;;;;;;;;;;;;;;;;;6186541;23;19916;-91
2022/04/04 13:38:32;;;;;;;;;;;;;;;;;;6186489;23;20416;-91
2022/04/04 13:40:59;;;;;;;;;;;;;;;;;;6184220;23;19989;-92
2022/04/04 13:43:26;;;;;;;;;;;;;;;;;;6180980;23;19924;-91
2022/04/04 13:45:57;;;;;;;;;;;;;;;;;;6180044;23;19924;-91
2022/04/04 13:48:36;;;;;;;;;;;;;;;;;;6184543;23;20237;-91
2022/04/04 13:51:28;;;;;;;;;;;;;;;;;;;;;
2022/04/04 13:53:59;;;;;;;;;;;;;;;;;;6182092;23;20706;-90
2022/04/04 13:56:38;;;;;;;;;;;;;;;;;;6208410;23;19924;-90
2022/04/04 13:59:06;;;;;;;;;;;;;;;;;;6182297;23;19920;-91
2022/04/04 14:01:54;;;;;;;;;;;;;;;;;;6146937;23;20305;-92
2022/04/04 14:04:29;;;;;;;;;;;;;;;;;;6092899;23;19927;-91
2022/04/04 14:07:14;;;;;;;;;;;;;;;;;;6036739;23;19921;-91
2022/04/04 14:09:46;;;;;;;;;;;;;;;;;;6035629;23;19954;-91
2022/04/04 14:12:23;;;;;;;;;;;;;;;;;;;;;
2022/04/04 14:15:09;;;;;;;;;;;;;;;;;;6034631;23;19951;-89
2022/04/04 14:17:40;;;;;;;;;;;;;;;;;;6034649;23;19926;-91
2022/04/04 14:20:17;;;;;;;;;;;;;;;;;;;;;
2022/04/04 14:22:49;;;;;;;;;;;;;;;;;;6034458;23;19924;-91
2022/04/04 14:25:21;;;;;;;;;;;;;;;;;;6033770;23;19996;-90
2022/04/04 14:27:56;;;;;;;;;;;;;;;;;;6036490;23;19921;-89
2022/04/04 14:36:22;;;;;;;;;;;;;;;;;;6001672;23;20002;-91
2022/04/04 14:39:04;;;;;;;;;;;;;;;;;;6053567;23;20348;-91
2022/04/04 14:41:48;;;;;;;;;;;;;;;;;;6129694;23;19923;-91
2022/04/04 14:50:29;;;;;;;;;;;;;;;;;;;;;
2022/04/04 14:53:05;;;;;;;;;;;;;;;;;;5972936;23;19926;-92
2022/04/04 14:55:41;;;;;;;;;;;;;;;;;;5976159;23;19928;-91
2022/04/04 15:01:41;;;;;;;;;;;;;;;;;;6005273;23;20391;-92
2022/04/04 15:04:24;;;;;;;;;;;;;;;;;;5974389;23;19961;-92
2022/04/04 15:13:02;;;;;;;;;;;;;;;;;;5922244;24;19923;-91
2022/04/04 15:15:46;;;;;;;;;;;;;;;;;;5970882;24;19990;-92
2022/04/04 15:21:24;;;;;;;;;;;;;;;;;;5966362;24;19998;-91
2022/04/04 15:26:53;;;;;;;;;;;;;;;;;;5949515;24;19933;-92
2022/04/04 15:29:28;;;;;;;;;;;;;;;;;;5980323;23;19926;-92
2022/04/04 15:32:16;;;;;;;;;;;;;;;;;;5890841;24;19973;-92
2022/04/04 15:34:43;;;;;;;;;;;;;;;;;;5886207;24;19924;-92
2022/04/04 15:37:10;;;;;;;;;;;;;;;;;;5915092;24;19963;-92
2022/04/04 15:39:36;;;;;;;;;;;;;;;;;;5920994;24;20155;-92
2022/04/04 15:42:03;;;;;;;;;;;;;;;;;;5916283;24;20757;-92
2022/04/04 15:44:29;;;;;;;;;;;;;;;;;;5923993;24;19951;-93
2022/04/04 15:46:56;;;;;;;;;;;;;;;;;;5946574;23;19958;-93
2022/04/04 15:49:22;;;;;;;;;;;;;;;;;;5978522;23;19951;-93
2022/04/04 15:51:49;;;;;;;;;;;;;;;;;;5979014;23;19978;-93
2022/04/04 15:54:16;;;;;;;;;;;;;;;;;;5978837;23;19926;-92
2022/04/04 15:56:52;;;;;;;;;;;;;;;;;;6001300;23;19922;-92
2022/04/04 15:59:18;;;;;;;;;;;;;;;;;;6068475;23;19963;-93
2022/04/04 16:01:44;;;;;;;;;;;;;;;;;;6118180;23;19987;-92
2022/04/04 16:04:10;;;;;;;;;;;;;;;;;;6175281;23;19924;-92
2022/04/04 16:06:42;;;;;;;;;;;;;;;;;;6145960;23;19923;-93
2022/04/04 16:09:09;;;;;;;;;;;;;;;;;;6146039;23;19917;-93
2022/04/04 16:11:36;;;;;;;;;;;;;;;;;;6122128;23;20850;-92
2022/04/04 16:14:03;;;;;;;;;;;;;;;;;;6146423;23;20353;-92
2022/04/04 16:16:34;;;;;;;;;;;;;;;;;;6145795;23;20338;-92
2022/04/04 16:19:10;;;;;;;;;;;;;;;;;;6099290;23;19967;-92
2022/04/04 16:21:37;;;;;;;;;;;;;;;;;;6097018;23;19925;-92
2022/04/04 16:24:04;;;;;;;;;;;;;;;;;;6097135;23;19921;-92
2022/04/04 16:26:33;;;;;;;;;;;;;;;;;;6144778;23;19999;-93
2022/04/04 16:29:00;;;;;;;;;;;;;;;;;;6095476;23;19921;-92
2022/04/04 16:31:27;;;;;;;;;;;;;;;;;;6117379;23;19920;-92
2022/04/04 16:33:53;;;;;;;;;;;;;;;;;;6118480;23;19925;-92
2022/04/04 16:36:21;;;;;;;;;;;;;;;;;;6119311;23;19952;-92
2022/04/04 16:38:48;;;;;;;;;;;;;;;;;;6146554;23;20048;-93
2022/04/04 16:41:16;;;;;;;;;;;;;;;;;;6146273;23;19976;-92
2022/04/04 16:43:44;;;;;;;;;;;;;;;;;;6146209;23;20003;-91
2022/04/04 16:46:12;;;;;;;;;;;;;;;;;;6145785;23;19924;-91
2022/04/04 16:48:39;;;;;;;;;;;;;;;;;;6141808;23;20011;-92
2022/04/04 16:51:06;;;;;;;;;;;;;;;;;;6146074;23;19927;-90
2022/04/04 16:53:35;;;;;;;;;;;;;;;;;;6149464;23;19920;-91
2022/04/04 16:56:09;;;;;;;;;;;;;;;;;;6145742;23;20758;-90
2022/04/04 16:58:34;;;;;;;;;;;;;;;;;;6147176;23;19931;-90
2022/04/04 17:01:02;;;;;;;;;;;;;;;;;;6146522;23;19925;-90
2022/04/04 17:03:28;;;;;;;;;;;;;;;;;;6145176;23;19921;-90
2022/04/04 17:05:57;;;;;;;;;;;;;;;;;;6144131;23;19952;-90
2022/04/04 17:08:24;;;;;;;;;;;;;;;;;;6168918;23;19983;-90
2022/04/04 17:10:52;;;;;;;;;;;;;;;;;;6144003;23;19947;-91
2022/04/04 17:13:19;;;;;;;;;;;;;;;;;;6144728;23;19991;-91
2022/04/04 17:15:46;;;;;;;;;;;;;;;;;;6169231;23;19956;-91
2022/04/04 17:18:13;;;;;;;;;;;;;;;;;;6120912;23;20007;-90
2022/04/04 17:20:41;;;;;;;;;;;;;;;;;;6146469;23;19920;-89
2022/04/04 17:23:27;;;;;;;;;;;;;;;;;;6145953;23;19915;-91
2022/04/04 17:25:53;;;;;;;;;;;;;;;;;;6147443;23;19927;-90
2022/04/04 17:28:20;;;;;;;;;;;;;;;;;;6120697;23;19921;-91
2022/04/04 17:30:47;;;;;;;;;;;;;;;;;;6145456;23;19931;-91
2022/04/04 17:33:15;;;;;;;;;;;;;;;;;;6149433;23;19987;-90
2022/04/04 17:35:41;;;;;;;;;;;;;;;;;;6175246;23;19925;-91
2022/04/04 17:38:09;;;;;;;;;;;;;;;;;;6175648;23;19931;-90
2022/04/04 17:40:38;;;;;;;;;;;;;;;;;;6176538;23;19927;-91
2022/04/04 17:43:07;;;;;;;;;;;;;;;;;;6174102;23;19931;-91